sensor_id;sensor_type;location;lat;lon;timestamp;pressure;altitude;pressure_sealevel;temperature;humidity
44934;BME280;30667;43.614;1.442;2023-06-10T00:01:26;99549.81;;;17.72;100.00
44934;BME280;30667;43.614;1.442;2023-06-10T00:03:52;99547.22;;;17.76;100.00
44934;BME280;30667;43.614;1.442;2023-06-10T00:06:18;99545.34;;;17.68;100.00
44934;BME280;30667;43.614;1.442;2023-06-10T00:08:43;99544.91;;;17.66;100.00
44934;BME280;30667;43.614;1.442;2023-06-10T00:11:09;99544.78;;;17.62;100.00
44934;BME280;30667;43.614;1.442;2023-06-10T00:13:35;99547.31;;;17.67;100.00
44934;BME280;30667;43.614;1.442;2023-06-10T00:16:01;99536.34;;;17.67;100.00
44934;BME280;30667;43.614;1.442;2023-06-10T00:18:26;99531.00;;;17.71;100.00
44934;BME280;30667;43.614;1.442;2023-06-10T00:20:52;99533.22;;;17.56;100.00
44934;BME280;30667;43.614;1.442;2023-06-10T00:23:21;99530.50;;;17.56;100.00
44934;BME280;30667;43.614;1.442;2023-06-10T00:25:46;99537.56;;;17.57;100.00
44934;BME280;30667;43.614;1.442;2023-06-10T00:28:12;99536.44;;;17.58;100.00
44934;BME280;30667;43.614;1.442;2023-06-10T00:30:38;99529.50;;;17.61;100.00
44934;BME280;30667;43.614;1.442;2023-06-10T00:33:04;99525.63;;;17.62;100.00
44934;BME280;30667;43.614;1.442;2023-06-10T00:35:29;99516.16;;;17.59;100.00
44934;BME280;30667;43.614;1.442;2023-06-10T00:37:55;99524.16;;;17.65;100.00
44934;BME280;30667;43.614;1.442;2023-06-10T00:40:20;99522.91;;;17.62;100.00
44934;BME280;30667;43.614;1.442;2023-06-10T00:42:46;99514.81;;;17.66;100.00
44934;BME280;30667;43.614;1.442;2023-06-10T00:45:11;99514.69;;;17.62;100.00
44934;BME280;30667;43.614;1.442;2023-06-10T00:47:36;99519.03;;;17.63;100.00
44934;BME280;30667;43.614;1.442;2023-06-10T00:50:03;99508.31;;;17.70;100.00
44934;BME280;30667;43.614;1.442;2023-06-10T00:52:29;99521.28;;;17.61;100.00
44934;BME280;30667;43.614;1.442;2023-06-10T00:54:58;99519.38;;;17.61;100.00
44934;BME280;30667;43.614;1.442;2023-06-10T00:57:24;99516.81;;;17.56;100.00
44934;BME280;30667;43.614;1.442;2023-06-10T00:59:50;99521.06;;;17.54;100.00
44934;BME280;30667;43.614;1.442;2023-06-10T01:02:16;99528.91;;;17.55;100.00
44934;BME280;30667;43.614;1.442;2023-06-10T01:04:42;99525.91;;;17.48;100.00
44934;BME280;30667;43.614;1.442;2023-06-10T01:07:20;99524.84;;;17.40;100.00
44934;BME280;30667;43.614;1.442;2023-06-10T01:10:09;99524.66;;;17.46;100.00
44934;BME280;30667;43.614;1.442;2023-06-10T01:12:43;99531.72;;;17.47;100.00
44934;BME280;30667;43.614;1.442;2023-06-10T01:15:15;99530.72;;;17.51;100.00
44934;BME280;30667;43.614;1.442;2023-06-10T01:20:22;99523.50;;;17.47;100.00
44934;BME280;30667;43.614;1.442;2023-06-10T01:22:49;99518.53;;;17.49;100.00
44934;BME280;30667;43.614;1.442;2023-06-10T01:25:16;99516.66;;;17.40;100.00
44934;BME280;30667;43.614;1.442;2023-06-10T01:27:43;99524.41;;;17.38;100.00
44934;BME280;30667;43.614;1.442;2023-06-10T01:30:14;99528.41;;;17.41;100.00
44934;BME280;30667;43.614;1.442;2023-06-10T01:32:45;99530.53;;;17.35;100.00
44934;BME280;30667;43.614;1.442;2023-06-10T01:35:12;99525.06;;;17.35;100.00
44934;BME280;30667;43.614;1.442;2023-06-10T01:37:39;99527.81;;;17.35;100.00
44934;BME280;30667;43.614;1.442;2023-06-10T01:40:08;99520.38;;;17.36;100.00
44934;BME280;30667;43.614;1.442;2023-06-10T01:42:34;99527.34;;;17.33;100.00
44934;BME280;30667;43.614;1.442;2023-06-10T01:45:00;99526.94;;;17.22;100.00
44934;BME280;30667;43.614;1.442;2023-06-10T01:47:25;99532.03;;;17.33;100.00
44934;BME280;30667;43.614;1.442;2023-06-10T01:49:51;99535.75;;;17.28;100.00
44934;BME280;30667;43.614;1.442;2023-06-10T01:52:16;99531.63;;;17.22;100.00
44934;BME280;30667;43.614;1.442;2023-06-10T01:54:42;99531.97;;;17.20;100.00
44934;BME280;30667;43.614;1.442;2023-06-10T01:57:07;99524.75;;;17.16;100.00
44934;BME280;30667;43.614;1.442;2023-06-10T01:59:33;99527.59;;;17.19;100.00
44934;BME280;30667;43.614;1.442;2023-06-10T02:01:58;99528.28;;;17.16;100.00
44934;BME280;30667;43.614;1.442;2023-06-10T02:04:24;99529.09;;;17.17;100.00
44934;BME280;30667;43.614;1.442;2023-06-10T02:06:49;99530.22;;;17.16;100.00
44934;BME280;30667;43.614;1.442;2023-06-10T02:09:15;99535.06;;;17.10;100.00
44934;BME280;30667;43.614;1.442;2023-06-10T02:11:41;99544.75;;;17.08;100.00
44934;BME280;30667;43.614;1.442;2023-06-10T02:14:06;99538.97;;;17.09;100.00
44934;BME280;30667;43.614;1.442;2023-06-10T02:16:31;99536.56;;;17.08;100.00
44934;BME280;30667;43.614;1.442;2023-06-10T02:18:57;99538.63;;;17.11;100.00
44934;BME280;30667;43.614;1.442;2023-06-10T02:21:22;99531.75;;;17.04;100.00
44934;BME280;30667;43.614;1.442;2023-06-10T02:23:48;99538.22;;;17.00;100.00
44934;BME280;30667;43.614;1.442;2023-06-10T02:26:13;99542.56;;;17.01;100.00
44934;BME280;30667;43.614;1.442;2023-06-10T02:28:42;99539.22;;;16.95;100.00
44934;BME280;30667;43.614;1.442;2023-06-10T02:31:07;99534.03;;;17.02;100.00
44934;BME280;30667;43.614;1.442;2023-06-10T02:33:33;99546.88;;;17.02;100.00
44934;BME280;30667;43.614;1.442;2023-06-10T02:35:58;99547.19;;;17.00;100.00
44934;BME280;30667;43.614;1.442;2023-06-10T02:38:24;99539.00;;;17.00;100.00
44934;BME280;30667;43.614;1.442;2023-06-10T02:40:49;99557.34;;;17.00;100.00
44934;BME280;30667;43.614;1.442;2023-06-10T02:43:15;99554.28;;;17.01;100.00
44934;BME280;30667;43.614;1.442;2023-06-10T02:45:40;99549.47;;;16.98;100.00
44934;BME280;30667;43.614;1.442;2023-06-10T02:48:06;99544.59;;;17.04;100.00
44934;BME280;30667;43.614;1.442;2023-06-10T02:50:31;99538.88;;;16.97;100.00
44934;BME280;30667;43.614;1.442;2023-06-10T02:52:57;99546.88;;;17.02;100.00
44934;BME280;30667;43.614;1.442;2023-06-10T02:55:23;99544.00;;;16.98;100.00
44934;BME280;30667;43.614;1.442;2023-06-10T02:57:51;99550.81;;;16.92;100.00
44934;BME280;30667;43.614;1.442;2023-06-10T03:00:19;99545.63;;;16.99;100.00
44934;BME280;30667;43.614;1.442;2023-06-10T03:02:45;99550.13;;;16.95;100.00
44934;BME280;30667;43.614;1.442;2023-06-10T03:05:11;99546.31;;;16.87;100.00
44934;BME280;30667;43.614;1.442;2023-06-10T03:07:38;99555.66;;;16.86;100.00
44934;BME280;30667;43.614;1.442;2023-06-10T03:10:05;99560.94;;;16.92;100.00
44934;BME280;30667;43.614;1.442;2023-06-10T03:12:30;99557.94;;;16.76;100.00
44934;BME280;30667;43.614;1.442;2023-06-10T03:14:56;99559.38;;;16.82;100.00
44934;BME280;30667;43.614;1.442;2023-06-10T03:17:21;99560.50;;;16.81;100.00
44934;BME280;30667;43.614;1.442;2023-06-10T03:19:46;99561.59;;;16.80;100.00
44934;BME280;30667;43.614;1.442;2023-06-10T03:22:14;99562.09;;;16.82;100.00
44934;BME280;30667;43.614;1.442;2023-06-10T03:24:40;99561.59;;;16.80;100.00
44934;BME280;30667;43.614;1.442;2023-06-10T03:27:07;99564.34;;;16.80;100.00
44934;BME280;30667;43.614;1.442;2023-06-10T03:29:32;99563.50;;;16.88;100.00
44934;BME280;30667;43.614;1.442;2023-06-10T03:31:58;99561.59;;;16.88;100.00
44934;BME280;30667;43.614;1.442;2023-06-10T03:34:23;99555.47;;;16.92;100.00
44934;BME280;30667;43.614;1.442;2023-06-10T03:36:49;99571.06;;;16.91;100.00
44934;BME280;30667;43.614;1.442;2023-06-10T03:39:14;99571.09;;;16.82;100.00
44934;BME280;30667;43.614;1.442;2023-06-10T03:41:40;99573.38;;;16.71;100.00
44934;BME280;30667;43.614;1.442;2023-06-10T03:44:06;99576.88;;;16.81;100.00
44934;BME280;30667;43.614;1.442;2023-06-10T03:46:31;99579.31;;;16.74;100.00
44934;BME280;30667;43.614;1.442;2023-06-10T03:48:57;99579.03;;;16.66;100.00
44934;BME280;30667;43.614;1.442;2023-06-10T03:51:28;99580.16;;;16.65;100.00
44934;BME280;30667;43.614;1.442;2023-06-10T03:53:53;99581.13;;;16.69;100.00
44934;BME280;30667;43.614;1.442;2023-06-10T03:56:19;99587.03;;;16.71;100.00
44934;BME280;30667;43.614;1.442;2023-06-10T03:58:44;99580.94;;;16.75;100.00
44934;BME280;30667;43.614;1.442;2023-06-10T04:01:10;99590.59;;;16.72;100.00
44934;BME280;30667;43.614;1.442;2023-06-10T04:03:36;99588.66;;;16.73;100.00
44934;BME280;30667;43.614;1.442;2023-06-10T04:06:01;99589.44;;;16.73;100.00
44934;BME280;30667;43.614;1.442;2023-06-10T04:08:27;99593.94;;;16.78;100.00
44934;BME280;30667;43.614;1.442;2023-06-10T04:10:53;99603.75;;;16.79;100.00
44934;BME280;30667;43.614;1.442;2023-06-10T04:13:18;99600.38;;;16.73;100.00
44934;BME280;30667;43.614;1.442;2023-06-10T04:15:44;99601.16;;;16.74;100.00
44934;BME280;30667;43.614;1.442;2023-06-10T04:18:10;99603.91;;;16.74;100.00
44934;BME280;30667;43.614;1.442;2023-06-10T04:20:35;99605.50;;;16.75;100.00
44934;BME280;30667;43.614;1.442;2023-06-10T04:23:01;99600.03;;;16.75;100.00
44934;BME280;30667;43.614;1.442;2023-06-10T04:25:26;99608.25;;;16.75;100.00
44934;BME280;30667;43.614;1.442;2023-06-10T04:27:52;99611.63;;;16.71;100.00
44934;BME280;30667;43.614;1.442;2023-06-10T04:30:17;99605.66;;;16.78;100.00
44934;BME280;30667;43.614;1.442;2023-06-10T04:32:43;99610.50;;;16.73;100.00
44934;BME280;30667;43.614;1.442;2023-06-10T04:35:11;99608.25;;;16.75;100.00
44934;BME280;30667;43.614;1.442;2023-06-10T04:37:38;99615.50;;;16.70;100.00
44934;BME280;30667;43.614;1.442;2023-06-10T04:40:04;99610.19;;;16.74;100.00
44934;BME280;30667;43.614;1.442;2023-06-10T04:42:30;99616.91;;;16.77;100.00
44934;BME280;30667;43.614;1.442;2023-06-10T04:44:56;99621.75;;;16.71;100.00
44934;BME280;30667;43.614;1.442;2023-06-10T04:47:21;99622.56;;;16.71;100.00
44934;BME280;30667;43.614;1.442;2023-06-10T04:49:46;99625.75;;;16.74;100.00
44934;BME280;30667;43.614;1.442;2023-06-10T04:52:12;99628.50;;;16.74;100.00
44934;BME280;30667;43.614;1.442;2023-06-10T04:54:39;99626.56;;;16.74;100.00
44934;BME280;30667;43.614;1.442;2023-06-10T04:57:05;99622.56;;;16.71;100.00
44934;BME280;30667;43.614;1.442;2023-06-10T04:59:33;99621.44;;;16.73;100.00
44934;BME280;30667;43.614;1.442;2023-06-10T05:02:02;99616.75;;;16.73;100.00
44934;BME280;30667;43.614;1.442;2023-06-10T05:04:28;99625.75;;;16.74;100.00
44934;BME280;30667;43.614;1.442;2023-06-10T05:06:54;99632.19;;;16.78;100.00
44934;BME280;30667;43.614;1.442;2023-06-10T05:09:20;99624.78;;;16.78;100.00
44934;BME280;30667;43.614;1.442;2023-06-10T05:11:46;99626.72;;;16.78;100.00
44934;BME280;30667;43.614;1.442;2023-06-10T05:14:11;99634.25;;;16.81;100.00
44934;BME280;30667;43.614;1.442;2023-06-10T05:16:37;99630.56;;;16.77;100.00
44934;BME280;30667;43.614;1.442;2023-06-10T05:19:02;99631.19;;;16.82;100.00
44934;BME280;30667;43.614;1.442;2023-06-10T05:21:29;99630.56;;;16.85;100.00
44934;BME280;30667;43.614;1.442;2023-06-10T05:23:54;99632.31;;;16.81;100.00
44934;BME280;30667;43.614;1.442;2023-06-10T05:26:20;99635.50;;;16.92;100.00
44934;BME280;30667;43.614;1.442;2023-06-10T05:28:45;99635.38;;;16.88;100.00
44934;BME280;30667;43.614;1.442;2023-06-10T05:31:11;99633.75;;;16.87;100.00
44934;BME280;30667;43.614;1.442;2023-06-10T05:33:36;99631.81;;;16.88;100.00
44934;BME280;30667;43.614;1.442;2023-06-10T05:36:01;99635.97;;;16.94;100.00
44934;BME280;30667;43.614;1.442;2023-06-10T05:38:27;99631.94;;;17.00;100.00
44934;BME280;30667;43.614;1.442;2023-06-10T05:40:52;99631.59;;;17.02;100.00
44934;BME280;30667;43.614;1.442;2023-06-10T05:43:18;99631.06;;;17.09;100.00
44934;BME280;30667;43.614;1.442;2023-06-10T05:45:44;99643.41;;;17.15;100.00
44934;BME280;30667;43.614;1.442;2023-06-10T05:48:09;99637.75;;;17.20;100.00
44934;BME280;30667;43.614;1.442;2023-06-10T05:50:34;99644.19;;;17.24;100.00
44934;BME280;30667;43.614;1.442;2023-06-10T05:53:04;99640.97;;;17.22;100.00
44934;BME280;30667;43.614;1.442;2023-06-10T05:55:32;99641.91;;;17.26;100.00
44934;BME280;30667;43.614;1.442;2023-06-10T05:58:01;99642.19;;;17.33;100.00
44934;BME280;30667;43.614;1.442;2023-06-10T06:00:26;99640.88;;;17.39;100.00
44934;BME280;30667;43.614;1.442;2023-06-10T06:02:52;99655.94;;;17.46;100.00
44934;BME280;30667;43.614;1.442;2023-06-10T06:05:18;99652.19;;;17.50;100.00
44934;BME280;30667;43.614;1.442;2023-06-10T06:07:44;99657.81;;;17.54;100.00
44934;BME280;30667;43.614;1.442;2023-06-10T06:10:09;99656.94;;;17.62;100.00
44934;BME280;30667;43.614;1.442;2023-06-10T06:12:34;99654.47;;;17.69;100.00
44934;BME280;30667;43.614;1.442;2023-06-10T06:15:00;99652.84;;;18.56;100.00
44934;BME280;30667;43.614;1.442;2023-06-10T06:17:25;99651.97;;;18.77;100.00
44934;BME280;30667;43.614;1.442;2023-06-10T06:19:51;99656.44;;;19.06;100.00
44934;BME280;30667;43.614;1.442;2023-06-10T06:22:17;99661.78;;;19.27;100.00
44934;BME280;30667;43.614;1.442;2023-06-10T06:24:46;99657.50;;;19.54;100.00
44934;BME280;30667;43.614;1.442;2023-06-10T06:27:12;99664.84;;;19.50;100.00
44934;BME280;30667;43.614;1.442;2023-06-10T06:29:37;99662.38;;;19.08;100.00
44934;BME280;30667;43.614;1.442;2023-06-10T06:32:03;99657.22;;;18.82;100.00
44934;BME280;30667;43.614;1.442;2023-06-10T06:34:28;99666.84;;;18.88;100.00
44934;BME280;30667;43.614;1.442;2023-06-10T06:36:54;99664.28;;;18.70;100.00
44934;BME280;30667;43.614;1.442;2023-06-10T06:39:19;99672.88;;;18.94;100.00
44934;BME280;30667;43.614;1.442;2023-06-10T06:41:44;99668.97;;;18.70;100.00
44934;BME280;30667;43.614;1.442;2023-06-10T06:44:10;99665.91;;;18.84;100.00
44934;BME280;30667;43.614;1.442;2023-06-10T06:46:35;99664.31;;;19.20;100.00
44934;BME280;30667;43.614;1.442;2023-06-10T06:49:01;99659.94;;;19.44;100.00
44934;BME280;30667;43.614;1.442;2023-06-10T06:51:26;99672.00;;;19.67;100.00
44934;BME280;30667;43.614;1.442;2023-06-10T06:53:51;99675.44;;;19.76;100.00
44934;BME280;30667;43.614;1.442;2023-06-10T06:56:20;99672.81;;;19.80;100.00
44934;BME280;30667;43.614;1.442;2023-06-10T06:58:46;99666.41;;;19.76;100.00
44934;BME280;30667;43.614;1.442;2023-06-10T07:01:11;99669.22;;;19.92;100.00
44934;BME280;30667;43.614;1.442;2023-06-10T07:03:37;99669.25;;;19.67;100.00
44934;BME280;30667;43.614;1.442;2023-06-10T07:06:02;99671.56;;;19.53;100.00
44934;BME280;30667;43.614;1.442;2023-06-10T07:08:33;99679.00;;;19.52;100.00
44934;BME280;30667;43.614;1.442;2023-06-10T07:10:59;99674.97;;;19.62;100.00
44934;BME280;30667;43.614;1.442;2023-06-10T07:13:24;99682.72;;;19.85;100.00
44934;BME280;30667;43.614;1.442;2023-06-10T07:15:50;99681.75;;;19.77;100.00
44934;BME280;30667;43.614;1.442;2023-06-10T07:18:15;99677.44;;;19.92;100.00
44934;BME280;30667;43.614;1.442;2023-06-10T07:20:44;99683.38;;;19.94;100.00
44934;BME280;30667;43.614;1.442;2023-06-10T07:23:09;99679.66;;;19.74;100.00
44934;BME280;30667;43.614;1.442;2023-06-10T07:25:35;99673.34;;;19.73;100.00
44934;BME280;30667;43.614;1.442;2023-06-10T07:28:00;99673.94;;;19.79;100.00
44934;BME280;30667;43.614;1.442;2023-06-10T07:30:26;99674.25;;;19.90;100.00
44934;BME280;30667;43.614;1.442;2023-06-10T07:32:51;99672.22;;;19.74;100.00
44934;BME280;30667;43.614;1.442;2023-06-10T07:35:17;99679.88;;;19.69;100.00
44934;BME280;30667;43.614;1.442;2023-06-10T07:37:42;99677.25;;;19.72;100.00
44934;BME280;30667;43.614;1.442;2023-06-10T07:40:08;99673.00;;;19.75;100.00
44934;BME280;30667;43.614;1.442;2023-06-10T07:42:35;99677.38;;;19.76;100.00
44934;BME280;30667;43.614;1.442;2023-06-10T07:45:01;99691.56;;;19.78;100.00
44934;BME280;30667;43.614;1.442;2023-06-10T07:47:27;99689.38;;;19.84;100.00
44934;BME280;30667;43.614;1.442;2023-06-10T07:49:52;99687.63;;;19.91;100.00
44934;BME280;30667;43.614;1.442;2023-06-10T07:52:18;99689.00;;;19.98;100.00
44934;BME280;30667;43.614;1.442;2023-06-10T07:54:43;99691.84;;;20.01;100.00
44934;BME280;30667;43.614;1.442;2023-06-10T07:57:08;99695.13;;;20.07;100.00
44934;BME280;30667;43.614;1.442;2023-06-10T07:59:34;99693.72;;;20.13;100.00
44934;BME280;30667;43.614;1.442;2023-06-10T08:01:59;99693.81;;;20.17;100.00
44934;BME280;30667;43.614;1.442;2023-06-10T08:04:25;99693.59;;;20.22;100.00
44934;BME280;30667;43.614;1.442;2023-06-10T08:06:50;99692.53;;;20.26;100.00
44934;BME280;30667;43.614;1.442;2023-06-10T08:09:16;99695.38;;;20.30;100.00
44934;BME280;30667;43.614;1.442;2023-06-10T08:11:41;99690.22;;;20.28;100.00
44934;BME280;30667;43.614;1.442;2023-06-10T08:14:07;99689.63;;;20.35;100.00
44934;BME280;30667;43.614;1.442;2023-06-10T08:16:32;99700.25;;;20.37;100.00
44934;BME280;30667;43.614;1.442;2023-06-10T08:18:58;99701.88;;;20.38;100.00
44934;BME280;30667;43.614;1.442;2023-06-10T08:21:23;99693.78;;;20.45;100.00
44934;BME280;30667;43.614;1.442;2023-06-10T08:23:52;99691.84;;;20.45;100.00
44934;BME280;30667;43.614;1.442;2023-06-10T08:26:18;99696.97;;;20.47;100.00
44934;BME280;30667;43.614;1.442;2023-06-10T08:28:43;99697.53;;;20.53;100.00
44934;BME280;30667;43.614;1.442;2023-06-10T08:31:09;99703.47;;;20.55;100.00
44934;BME280;30667;43.614;1.442;2023-06-10T08:33:34;99703.59;;;20.58;100.00
44934;BME280;30667;43.614;1.442;2023-06-10T08:36:00;99705.25;;;20.63;100.00
44934;BME280;30667;43.614;1.442;2023-06-10T08:38:25;99704.69;;;20.70;100.00
44934;BME280;30667;43.614;1.442;2023-06-10T08:40:52;99703.63;;;20.74;100.00
44934;BME280;30667;43.614;1.442;2023-06-10T08:43:46;99703.16;;;20.72;100.00
44934;BME280;30667;43.614;1.442;2023-06-10T08:46:14;99703.06;;;20.68;100.00
44934;BME280;30667;43.614;1.442;2023-06-10T08:48:42;99707.44;;;20.70;100.00
44934;BME280;30667;43.614;1.442;2023-06-10T08:51:10;99709.84;;;20.71;100.00
44934;BME280;30667;43.614;1.442;2023-06-10T08:53:38;99704.34;;;20.71;100.00
44934;BME280;30667;43.614;1.442;2023-06-10T08:56:06;99712.94;;;20.70;100.00
44934;BME280;30667;43.614;1.442;2023-06-10T08:58:32;99711.75;;;20.71;100.00
44934;BME280;30667;43.614;1.442;2023-06-10T09:01:07;99711.59;;;20.79;100.00
44934;BME280;30667;43.614;1.442;2023-06-10T09:03:33;99715.00;;;20.89;100.00
44934;BME280;30667;43.614;1.442;2023-06-10T09:06:01;99712.31;;;20.92;100.00
44934;BME280;30667;43.614;1.442;2023-06-10T09:08:27;99713.03;;;20.89;100.00
44934;BME280;30667;43.614;1.442;2023-06-10T09:10:53;99715.00;;;20.89;100.00
44934;BME280;30667;43.614;1.442;2023-06-10T09:13:19;99712.66;;;20.91;100.00
44934;BME280;30667;43.614;1.442;2023-06-10T09:15:44;99718.25;;;20.94;100.00
44934;BME280;30667;43.614;1.442;2023-06-10T09:18:11;99713.81;;;20.90;100.00
44934;BME280;30667;43.614;1.442;2023-06-10T09:20:38;99720.13;;;20.90;100.00
44934;BME280;30667;43.614;1.442;2023-06-10T09:23:05;99722.06;;;21.05;100.00
44934;BME280;30667;43.614;1.442;2023-06-10T09:25:35;99721.97;;;21.02;100.00
44934;BME280;30667;43.614;1.442;2023-06-10T09:28:02;99717.53;;;20.97;100.00
44934;BME280;30667;43.614;1.442;2023-06-10T09:30:33;99723.47;;;20.99;100.00
44934;BME280;30667;43.614;1.442;2023-06-10T09:33:03;99720.56;;;21.08;100.00
44934;BME280;30667;43.614;1.442;2023-06-10T09:35:34;99716.13;;;21.03;100.00
44934;BME280;30667;43.614;1.442;2023-06-10T09:38:00;99717.19;;;20.99;100.00
44934;BME280;30667;43.614;1.442;2023-06-10T09:40:27;99712.47;;;20.99;100.00
44934;BME280;30667;43.614;1.442;2023-06-10T09:42:58;99720.72;;;20.99;100.00
44934;BME280;30667;43.614;1.442;2023-06-10T09:45:29;99716.03;;;21.00;100.00
44934;BME280;30667;43.614;1.442;2023-06-10T09:47:55;99714.16;;;21.04;100.00
44934;BME280;30667;43.614;1.442;2023-06-10T09:50:21;99707.94;;;21.07;100.00
44934;BME280;30667;43.614;1.442;2023-06-10T09:52:47;99708.75;;;21.08;100.00
44934;BME280;30667;43.614;1.442;2023-06-10T09:55:15;99704.78;;;21.05;100.00
44934;BME280;30667;43.614;1.442;2023-06-10T09:57:41;99706.47;;;21.10;100.00
44934;BME280;30667;43.614;1.442;2023-06-10T10:00:10;99705.63;;;21.09;100.00
44934;BME280;30667;43.614;1.442;2023-06-10T10:02:50;99705.28;;;21.11;100.00
44934;BME280;30667;43.614;1.442;2023-06-10T10:05:17;99708.94;;;21.15;100.00
44934;BME280;30667;43.614;1.442;2023-06-10T10:07:43;99712.03;;;21.13;100.00
44934;BME280;30667;43.614;1.442;2023-06-10T10:10:10;99708.84;;;21.11;100.00
44934;BME280;30667;43.614;1.442;2023-06-10T10:12:38;99706.88;;;21.12;100.00
44934;BME280;30667;43.614;1.442;2023-06-10T10:15:06;99711.25;;;21.13;100.00
44934;BME280;30667;43.614;1.442;2023-06-10T10:17:34;99703.34;;;21.11;100.00
44934;BME280;30667;43.614;1.442;2023-06-10T10:20:04;99704.22;;;21.15;100.00
44934;BME280;30667;43.614;1.442;2023-06-10T10:22:43;99702.63;;;21.14;100.00
44934;BME280;30667;43.614;1.442;2023-06-10T10:25:15;99710.06;;;21.14;100.00
44934;BME280;30667;43.614;1.442;2023-06-10T10:27:51;99703.44;;;21.15;100.00
44934;BME280;30667;43.614;1.442;2023-06-10T10:30:17;99705.03;;;21.16;100.00
44934;BME280;30667;43.614;1.442;2023-06-10T10:33:01;99697.94;;;21.15;100.00
44934;BME280;30667;43.614;1.442;2023-06-10T10:35:30;99704.22;;;21.15;100.00
44934;BME280;30667;43.614;1.442;2023-06-10T10:37:56;99689.75;;;21.18;100.00
44934;BME280;30667;43.614;1.442;2023-06-10T10:40:22;99692.16;;;21.20;100.00
44934;BME280;30667;43.614;1.442;2023-06-10T10:42:50;99700.03;;;21.21;100.00
44934;BME280;30667;43.614;1.442;2023-06-10T10:45:16;99699.59;;;21.19;100.00
44934;BME280;30667;43.614;1.442;2023-06-10T10:47:43;99697.38;;;21.25;100.00
44934;BME280;30667;43.614;1.442;2023-06-10T10:50:14;99699.50;;;21.32;100.00
44934;BME280;30667;43.614;1.442;2023-06-10T10:53:01;99704.16;;;21.47;100.00
44934;BME280;30667;43.614;1.442;2023-06-10T10:55:27;99690.63;;;21.38;100.00
44934;BME280;30667;43.614;1.442;2023-06-10T11:00:43;99686.91;;;21.31;100.00
44934;BME280;30667;43.614;1.442;2023-06-10T11:03:14;99689.66;;;21.31;100.00
44934;BME280;30667;43.614;1.442;2023-06-10T11:05:41;99690.06;;;21.33;100.00
44934;BME280;30667;43.614;1.442;2023-06-10T11:08:10;99685.75;;;21.32;100.00
44934;BME280;30667;43.614;1.442;2023-06-10T11:10:37;99696.19;;;21.42;100.00
44934;BME280;30667;43.614;1.442;2023-06-10T11:13:13;99690.63;;;21.38;100.00
44934;BME280;30667;43.614;1.442;2023-06-10T11:15:43;99687.44;;;21.36;100.00
44934;BME280;30667;43.614;1.442;2023-06-10T11:21:03;99686.31;;;21.41;100.00
44934;BME280;30667;43.614;1.442;2023-06-10T11:31:25;99679.53;;;21.35;100.00
44934;BME280;30667;43.614;1.442;2023-06-10T11:33:58;99675.41;;;21.45;100.00
44934;BME280;30667;43.614;1.442;2023-06-10T11:36:25;99683.13;;;21.55;100.00
44934;BME280;30667;43.614;1.442;2023-06-10T11:41:27;99675.22;;;21.53;100.00
44934;BME280;30667;43.614;1.442;2023-06-10T11:44:01;99669.78;;;21.57;100.00
44934;BME280;30667;43.614;1.442;2023-06-10T11:46:26;99666.91;;;21.50;100.00
44934;BME280;30667;43.614;1.442;2023-06-10T11:49:00;99667.41;;;21.55;100.00
44934;BME280;30667;43.614;1.442;2023-06-10T11:51:27;99666.19;;;21.53;100.00
44934;BME280;30667;43.614;1.442;2023-06-10T11:53:54;99663.78;;;21.51;100.00
44934;BME280;30667;43.614;1.442;2023-06-10T11:56:24;99663.00;;;21.51;100.00
44934;BME280;30667;43.614;1.442;2023-06-10T11:58:58;99665.31;;;21.49;100.00
44934;BME280;30667;43.614;1.442;2023-06-10T12:01:26;99655.19;;;21.53;100.00
44934;BME280;30667;43.614;1.442;2023-06-10T12:04:03;99652.34;;;21.49;100.00
44934;BME280;30667;43.614;1.442;2023-06-10T12:06:41;99651.47;;;21.65;100.00
44934;BME280;30667;43.614;1.442;2023-06-10T12:09:26;99655.78;;;21.62;100.00
44934;BME280;30667;43.614;1.442;2023-06-10T12:11:58;99646.03;;;21.68;100.00
44934;BME280;30667;43.614;1.442;2023-06-10T12:14:55;99644.47;;;21.67;100.00
44934;BME280;30667;43.614;1.442;2023-06-10T12:17:42;99649.28;;;22.79;100.00
44934;BME280;30667;43.614;1.442;2023-06-10T12:20:09;99637.25;;;22.21;100.00
44934;BME280;30667;43.614;1.442;2023-06-10T12:22:49;99643.38;;;21.91;100.00
44934;BME280;30667;43.614;1.442;2023-06-10T12:25:14;99637.34;;;22.05;100.00
44934;BME280;30667;43.614;1.442;2023-06-10T12:27:50;99634.22;;;21.87;100.00
44934;BME280;30667;43.614;1.442;2023-06-10T12:30:22;99634.81;;;21.77;100.00
44934;BME280;30667;43.614;1.442;2023-06-10T12:32:48;99633.16;;;21.72;100.00
44934;BME280;30667;43.614;1.442;2023-06-10T12:35:21;99628.78;;;21.71;100.00
44934;BME280;30667;43.614;1.442;2023-06-10T12:40:29;99626.41;;;21.70;100.00
44934;BME280;30667;43.614;1.442;2023-06-10T12:42:56;99616.44;;;21.81;100.00
44934;BME280;30667;43.614;1.442;2023-06-10T12:45:32;99607.66;;;21.75;100.00
44934;BME280;30667;43.614;1.442;2023-06-10T12:48:21;99610.75;;;21.74;100.00
44934;BME280;30667;43.614;1.442;2023-06-10T12:50:57;99615.91;;;21.75;100.00
44934;BME280;30667;43.614;1.442;2023-06-10T12:53:23;99606.78;;;21.71;100.00
44934;BME280;30667;43.614;1.442;2023-06-10T12:55:50;99600.47;;;21.71;100.00
44934;BME280;30667;43.614;1.442;2023-06-10T12:58:15;99603.59;;;21.69;100.00
44934;BME280;30667;43.614;1.442;2023-06-10T13:00:41;99599.22;;;21.68;100.00
44934;BME280;30667;43.614;1.442;2023-06-10T13:03:08;99597.31;;;21.69;100.00
44934;BME280;30667;43.614;1.442;2023-06-10T13:05:37;99597.31;;;21.69;100.00
44934;BME280;30667;43.614;1.442;2023-06-10T13:08:10;99594.97;;;21.71;100.00
44934;BME280;30667;43.614;1.442;2023-06-10T13:10:35;99587.94;;;21.73;100.00
44934;BME280;30667;43.614;1.442;2023-06-10T13:13:02;99594.66;;;21.76;100.00